createdAt,value
2018-12-05T00:01:43.434Z,4.40
2018-12-05T00:04:12.077Z,4.30
2018-12-05T00:06:40.749Z,4.40
2018-12-05T00:09:09.455Z,4.40
2018-12-05T00:11:38.531Z,4.40
2018-12-05T00:14:07.446Z,4.40
2018-12-05T00:16:36.159Z,4.40
2018-12-05T00:19:04.945Z,4.40
2018-12-05T00:21:34.187Z,4.40
2018-12-05T00:24:02.819Z,4.40
2018-12-05T00:26:31.479Z,4.40
2018-12-05T00:29:00.146Z,4.40
2018-12-05T00:31:28.831Z,4.40
2018-12-05T00:33:57.429Z,4.40
2018-12-05T00:36:26.679Z,4.40
2018-12-05T00:38:55.324Z,4.40
2018-12-05T00:41:23.961Z,4.30
2018-12-05T00:43:52.607Z,4.30
2018-12-05T00:46:21.221Z,4.30
2018-12-05T00:48:49.912Z,4.20
2018-12-05T00:51:18.646Z,4.20
2018-12-05T00:53:47.312Z,4.20
2018-12-05T00:56:16.009Z,4.20
2018-12-05T00:58:44.805Z,4.20
2018-12-05T01:01:13.435Z,4.20
2018-12-05T01:03:42.081Z,4.10
2018-12-05T01:06:10.733Z,4.10
2018-12-05T01:08:39.379Z,4.10
2018-12-05T01:11:08.059Z,4.10
2018-12-05T01:13:36.699Z,4.10
2018-12-05T01:16:05.396Z,4.10
2018-12-05T01:18:34.189Z,4.00
2018-12-05T01:21:02.790Z,4.00
2018-12-05T01:23:31.437Z,4.00
2018-12-05T01:26:00.069Z,4.00
2018-12-05T01:28:28.785Z,3.90
2018-12-05T01:30:57.419Z,3.90
2018-12-05T01:33:26.132Z,3.90
2018-12-05T01:35:54.799Z,3.90
2018-12-05T01:38:23.433Z,3.90
2018-12-05T01:40:52.040Z,3.80
2018-12-05T01:43:20.736Z,3.80
2018-12-05T01:45:49.361Z,3.80
2018-12-05T01:48:18.031Z,3.80
2018-12-05T01:50:46.670Z,3.70
2018-12-05T01:53:15.294Z,3.70
2018-12-05T01:55:43.948Z,3.70
2018-12-05T01:58:12.613Z,3.70
2018-12-05T02:00:41.252Z,3.70
2018-12-05T02:03:09.946Z,3.60
2018-12-05T02:05:38.601Z,3.70
2018-12-05T02:08:07.237Z,3.70
2018-12-05T02:10:36.499Z,3.60
2018-12-05T02:13:05.206Z,3.60
2018-12-05T02:15:33.860Z,3.60
2018-12-05T02:18:02.496Z,3.60
2018-12-05T02:20:31.174Z,3.50
2018-12-05T02:22:59.816Z,3.50
2018-12-05T02:25:28.443Z,3.50
2018-12-05T02:27:57.095Z,3.50
2018-12-05T02:30:25.735Z,3.50
2018-12-05T02:32:54.355Z,3.50
2018-12-05T02:35:22.991Z,3.50
2018-12-05T02:37:51.646Z,3.50
2018-12-05T02:40:20.312Z,3.60
2018-12-05T02:42:48.909Z,3.60
2018-12-05T02:45:17.686Z,3.60
2018-12-05T02:47:46.373Z,3.60
2018-12-05T02:50:15.003Z,3.60
2018-12-05T02:52:43.612Z,3.60
2018-12-05T02:55:12.481Z,3.60
2018-12-05T02:57:41.136Z,3.60
2018-12-05T03:00:09.907Z,3.60
2018-12-05T03:02:38.562Z,3.60
2018-12-05T03:05:08.070Z,3.60
2018-12-05T03:07:36.837Z,3.60
2018-12-05T03:10:06.247Z,3.60
2018-12-05T03:12:34.924Z,3.60
2018-12-05T03:15:03.718Z,3.60
2018-12-05T03:17:32.329Z,3.50
2018-12-05T03:20:00.990Z,3.60
2018-12-05T03:22:29.609Z,3.60
2018-12-05T03:24:58.253Z,3.60
2018-12-05T03:27:26.850Z,3.60
2018-12-05T03:29:55.470Z,3.50
2018-12-05T03:32:24.069Z,3.50
2018-12-05T03:34:52.685Z,3.60
2018-12-05T03:37:21.313Z,3.60
2018-12-05T03:39:49.896Z,3.60
2018-12-05T03:42:18.556Z,3.50
2018-12-05T03:44:47.194Z,3.60
2018-12-05T03:47:15.780Z,3.60
2018-12-05T03:49:48.579Z,3.60
2018-12-05T03:52:17.220Z,3.60
2018-12-05T03:54:45.894Z,3.60
2018-12-05T03:57:14.492Z,3.50
2018-12-05T03:59:43.142Z,3.50
2018-12-05T04:02:11.819Z,3.50
2018-12-05T04:04:40.537Z,3.50
2018-12-05T04:07:09.264Z,3.50
2018-12-05T04:09:37.900Z,3.50
2018-12-05T04:12:06.613Z,3.50
2018-12-05T04:14:35.236Z,3.50
2018-12-05T04:17:03.980Z,3.50
2018-12-05T04:19:32.742Z,3.50
2018-12-05T04:22:01.424Z,3.40
2018-12-05T04:24:30.101Z,3.50
2018-12-05T04:26:58.727Z,3.50
2018-12-05T04:29:27.342Z,3.50
2018-12-05T04:31:55.949Z,3.50
2018-12-05T04:34:24.589Z,3.50
2018-12-05T04:36:53.261Z,3.40
2018-12-05T04:39:22.895Z,3.40
2018-12-05T04:41:51.620Z,3.50
2018-12-05T04:44:20.309Z,3.50
2018-12-05T04:46:48.947Z,3.50
2018-12-05T04:49:17.590Z,3.50
2018-12-05T04:51:46.231Z,3.50
2018-12-05T04:54:14.886Z,3.50
2018-12-05T04:56:43.564Z,3.50
2018-12-05T04:59:12.231Z,3.50
2018-12-05T05:01:40.922Z,3.50
2018-12-05T05:04:09.580Z,3.50
2018-12-05T05:06:41.605Z,3.50
2018-12-05T05:09:08.895Z,3.50
2018-12-05T05:11:37.512Z,3.50
2018-12-05T05:14:06.247Z,3.50
2018-12-05T05:16:34.850Z,3.50
2018-12-05T05:19:03.500Z,3.60
2018-12-05T05:21:32.178Z,3.50
2018-12-05T05:24:00.792Z,3.50
2018-12-05T05:26:29.420Z,3.60
2018-12-05T05:28:58.084Z,3.50
2018-12-05T05:31:26.822Z,3.60
2018-12-05T05:33:55.433Z,3.60
2018-12-05T05:36:24.085Z,3.50
2018-12-05T05:38:52.727Z,3.50
2018-12-05T05:41:21.361Z,3.60
2018-12-05T05:43:50.010Z,3.60
2018-12-05T05:46:18.650Z,3.50
2018-12-05T05:48:47.253Z,3.50
2018-12-05T05:51:16.064Z,3.50
2018-12-05T05:53:44.680Z,3.50
2018-12-05T05:56:13.328Z,3.50
2018-12-05T05:58:42.025Z,3.50
2018-12-05T06:01:10.672Z,3.40
2018-12-05T06:03:39.308Z,3.40
2018-12-05T06:06:08.057Z,3.40
2018-12-05T06:08:36.730Z,3.40
2018-12-05T06:11:05.425Z,3.40
2018-12-05T06:13:34.153Z,3.40
2018-12-05T06:16:02.912Z,3.40
2018-12-05T06:18:31.571Z,3.40
2018-12-05T06:21:00.368Z,3.30
2018-12-05T06:23:29.044Z,3.40
2018-12-05T06:25:57.668Z,3.30
2018-12-05T06:28:26.385Z,3.30
2018-12-05T06:30:55.027Z,3.20
2018-12-05T06:33:23.701Z,3.30
2018-12-05T06:35:52.332Z,3.20
2018-12-05T06:38:21.010Z,3.20
2018-12-05T06:40:49.652Z,3.20
2018-12-05T06:43:20.204Z,3.20
2018-12-05T06:45:48.888Z,3.20
2018-12-05T06:48:17.541Z,3.10
2018-12-05T06:50:46.181Z,3.10
2018-12-05T06:53:16.349Z,3.10
2018-12-05T06:55:45.059Z,3.10
2018-12-05T06:58:13.834Z,3.10
2018-12-05T07:00:42.519Z,3.10
2018-12-05T07:03:17.812Z,3.10
2018-12-05T07:05:46.420Z,3.10
2018-12-05T07:08:15.104Z,3.10
2018-12-05T07:10:43.872Z,3.10
2018-12-05T07:13:12.550Z,3.10
2018-12-05T07:15:41.186Z,3.10
2018-12-05T07:18:09.883Z,3.20
2018-12-05T07:20:38.756Z,3.10
2018-12-05T07:23:07.609Z,3.10
2018-12-05T07:25:36.367Z,3.10
2018-12-05T07:28:04.975Z,3.10
2018-12-05T07:30:33.658Z,3.00
2018-12-05T07:33:02.325Z,3.10
2018-12-05T07:35:31.703Z,3.00
2018-12-05T07:38:00.336Z,3.00
2018-12-05T07:40:28.969Z,3.00
2018-12-05T07:42:57.666Z,3.10
2018-12-05T07:45:26.295Z,3.10
2018-12-05T07:47:55.057Z,3.10
2018-12-05T07:50:23.709Z,3.10
2018-12-05T07:52:52.352Z,3.10
2018-12-05T07:55:21.016Z,3.10
2018-12-05T07:57:49.669Z,3.10
2018-12-05T08:00:18.324Z,3.20
2018-12-05T08:02:47.011Z,3.20
2018-12-05T08:05:15.724Z,3.20
2018-12-05T08:07:44.448Z,3.30
2018-12-05T08:10:13.128Z,3.30
2018-12-05T08:12:41.828Z,3.30
2018-12-05T08:15:10.573Z,3.30
2018-12-05T08:17:39.225Z,3.30
2018-12-05T08:20:08.316Z,3.40
2018-12-05T08:22:36.967Z,3.30
2018-12-05T08:25:06.279Z,3.40
2018-12-05T08:27:34.979Z,3.40
2018-12-05T08:30:03.971Z,3.40
2018-12-05T08:32:32.658Z,3.40
2018-12-05T08:35:01.272Z,3.40
2018-12-05T08:37:29.877Z,3.50
2018-12-05T08:39:58.554Z,3.50
2018-12-05T08:42:27.830Z,3.50
2018-12-05T08:44:56.450Z,3.60
2018-12-05T08:47:25.081Z,3.70
2018-12-05T08:49:53.698Z,3.70
2018-12-05T08:52:22.466Z,3.80
2018-12-05T08:54:51.167Z,3.80
2018-12-05T08:57:19.939Z,3.80
2018-12-05T08:59:48.632Z,3.70
2018-12-05T09:02:17.243Z,3.70
2018-12-05T09:04:45.956Z,3.70
2018-12-05T09:07:14.601Z,3.70
2018-12-05T09:09:43.284Z,3.70
2018-12-05T09:12:11.929Z,3.80
2018-12-05T09:14:40.626Z,3.80
2018-12-05T09:17:09.320Z,3.80
2018-12-05T09:19:37.975Z,3.80
2018-12-05T09:22:06.724Z,3.90
2018-12-05T09:24:35.488Z,4.00
2018-12-05T09:27:04.188Z,4.00
2018-12-05T09:29:32.869Z,4.00
2018-12-05T09:32:01.477Z,4.00
2018-12-05T09:34:30.128Z,4.10
2018-12-05T09:36:59.434Z,4.20
2018-12-05T09:39:28.098Z,4.20
2018-12-05T09:41:56.722Z,4.20
2018-12-05T09:44:25.361Z,4.30
2018-12-05T09:46:54.001Z,4.30
2018-12-05T09:49:22.648Z,4.30
2018-12-05T09:51:51.302Z,4.40
2018-12-05T09:54:19.963Z,4.40
2018-12-05T09:56:48.696Z,4.50
2018-12-05T09:59:17.438Z,4.50
2018-12-05T10:01:46.100Z,4.60
2018-12-05T10:04:14.767Z,4.60
2018-12-05T10:06:43.375Z,4.60
2018-12-05T10:09:12.021Z,4.60
2018-12-05T10:11:40.740Z,4.70
2018-12-05T10:14:09.425Z,4.70
2018-12-05T10:16:38.259Z,4.70
2018-12-05T10:19:07.571Z,4.80
2018-12-05T10:21:36.275Z,4.80
2018-12-05T10:24:05.013Z,4.80
2018-12-05T10:26:33.684Z,4.90
2018-12-05T10:29:02.359Z,4.90
2018-12-05T10:31:31.042Z,5.00
2018-12-05T10:33:59.657Z,5.00
2018-12-05T10:36:28.334Z,5.10
2018-12-05T10:38:56.967Z,5.20
2018-12-05T10:41:25.705Z,5.30
2018-12-05T10:43:54.351Z,5.40
2018-12-05T10:46:23.052Z,5.50
2018-12-05T10:48:51.728Z,5.60
2018-12-05T10:51:20.509Z,5.70
2018-12-05T10:53:49.387Z,5.80
2018-12-05T10:56:18.090Z,5.90
2018-12-05T10:58:46.819Z,5.90
2018-12-05T11:01:20.859Z,6.00
2018-12-05T11:03:49.526Z,6.00
2018-12-05T11:06:23.585Z,6.10
2018-12-05T11:08:57.584Z,6.20
2018-12-05T11:11:31.641Z,6.30
2018-12-05T11:14:05.577Z,6.40
2018-12-05T11:16:39.490Z,6.40
2018-12-05T11:19:13.385Z,6.40
2018-12-05T11:21:49.791Z,6.50
2018-12-05T11:24:23.386Z,6.50
2018-12-05T11:26:52.400Z,6.60
2018-12-05T11:29:21.134Z,6.60
2018-12-05T11:31:49.982Z,6.70
2018-12-05T11:34:18.654Z,6.80
2018-12-05T11:36:47.291Z,6.80
2018-12-05T11:39:15.932Z,6.90
2018-12-05T11:41:44.652Z,7.00
2018-12-05T11:44:13.353Z,7.00
2018-12-05T11:46:42.004Z,7.10
2018-12-05T11:49:10.837Z,7.20
2018-12-05T11:51:39.492Z,7.20
2018-12-05T11:54:08.201Z,7.30
2018-12-05T11:56:36.889Z,7.30
2018-12-05T11:59:05.653Z,7.40
2018-12-05T12:01:34.335Z,7.50
2018-12-05T12:04:03.023Z,7.50
2018-12-05T12:06:31.658Z,7.50
2018-12-05T12:09:00.393Z,7.60
2018-12-05T12:11:29.159Z,7.60
2018-12-05T12:13:57.941Z,7.60
2018-12-05T12:16:26.619Z,7.60
2018-12-05T12:18:55.329Z,7.70
2018-12-05T12:21:24.010Z,7.70
2018-12-05T12:23:53.323Z,7.70
2018-12-05T12:26:22.156Z,7.70
2018-12-05T12:28:50.805Z,7.80
2018-12-05T12:31:19.596Z,7.80
2018-12-05T12:33:48.267Z,7.80
2018-12-05T12:36:16.887Z,7.80
2018-12-05T12:38:45.577Z,7.80
2018-12-05T12:41:14.229Z,7.70
2018-12-05T12:43:42.948Z,7.60
2018-12-05T12:46:11.623Z,7.50
2018-12-05T12:48:40.332Z,7.50
2018-12-05T12:51:08.993Z,7.40
2018-12-05T12:53:37.658Z,7.40
2018-12-05T12:56:06.436Z,7.40
2018-12-05T12:58:35.224Z,7.40
2018-12-05T13:01:04.090Z,7.50
2018-12-05T13:03:32.781Z,7.50
2018-12-05T13:06:01.587Z,7.50
2018-12-05T13:08:30.309Z,7.50
2018-12-05T13:10:58.980Z,7.50
2018-12-05T13:13:27.649Z,7.40
2018-12-05T13:15:56.295Z,7.50
2018-12-05T13:18:25.152Z,7.40
2018-12-05T13:20:53.811Z,7.40
2018-12-05T13:23:22.517Z,7.40
2018-12-05T13:25:51.285Z,7.50
2018-12-05T13:28:20.032Z,7.50
2018-12-05T13:30:48.698Z,7.60
2018-12-05T13:33:17.415Z,7.50
2018-12-05T13:35:46.108Z,7.60
2018-12-05T13:38:15.669Z,7.60
2018-12-05T13:40:44.363Z,7.60
2018-12-05T13:43:13.182Z,7.70
2018-12-05T13:45:41.874Z,7.80
2018-12-05T13:48:10.586Z,7.90
2018-12-05T13:50:39.248Z,8.00
2018-12-05T13:53:07.980Z,8.10
2018-12-05T13:55:36.613Z,8.20
2018-12-05T13:58:05.355Z,8.20
2018-12-05T14:00:34.030Z,8.20
2018-12-05T14:03:02.720Z,8.10
2018-12-05T14:05:31.436Z,8.10
2018-12-05T14:08:00.127Z,8.10
2018-12-05T14:10:28.792Z,8.10
2018-12-05T14:12:59.317Z,8.00
2018-12-05T14:15:28.290Z,7.90
2018-12-05T14:18:01.327Z,7.90
2018-12-05T14:20:27.743Z,7.80
2018-12-05T14:22:56.440Z,7.80
2018-12-05T14:25:25.150Z,7.70
2018-12-05T14:27:53.819Z,7.70
2018-12-05T14:30:22.493Z,7.70
2018-12-05T14:32:51.145Z,7.70
2018-12-05T14:35:19.857Z,7.60
2018-12-05T14:37:48.572Z,7.60
2018-12-05T14:40:17.240Z,7.60
2018-12-05T14:42:45.983Z,7.50
2018-12-05T14:45:14.704Z,7.50
2018-12-05T14:47:43.427Z,7.50
2018-12-05T14:50:12.150Z,7.50
2018-12-05T14:52:40.865Z,7.50
2018-12-05T14:55:09.524Z,7.50
2018-12-05T14:57:38.219Z,7.50
2018-12-05T15:00:07.971Z,7.40
2018-12-05T15:02:36.687Z,7.50
2018-12-05T15:05:05.835Z,7.40
2018-12-05T15:07:34.587Z,7.40
2018-12-05T15:10:03.261Z,7.40
2018-12-05T15:12:32.112Z,7.40
2018-12-05T15:15:00.758Z,7.40
2018-12-05T15:17:29.626Z,7.40
2018-12-05T15:19:58.473Z,7.40
2018-12-05T15:22:27.174Z,7.40
2018-12-05T15:24:55.848Z,7.40
2018-12-05T15:27:24.549Z,7.40
2018-12-05T15:29:53.276Z,7.40
2018-12-05T15:32:21.984Z,7.40
2018-12-05T15:34:52.204Z,7.40
2018-12-05T15:37:21.169Z,7.40
2018-12-05T15:39:49.853Z,7.40
2018-12-05T15:42:18.530Z,7.40
2018-12-05T15:44:47.206Z,7.40
2018-12-05T15:47:15.942Z,7.40
2018-12-05T15:49:44.677Z,7.40
2018-12-05T15:52:13.338Z,7.40
2018-12-05T15:54:41.999Z,7.40
2018-12-05T15:57:10.723Z,7.40
2018-12-05T15:59:39.475Z,7.30
2018-12-05T16:02:08.181Z,7.30
2018-12-05T16:04:36.872Z,7.40
2018-12-05T16:07:06.531Z,7.40
2018-12-05T16:09:35.210Z,7.40
2018-12-05T16:12:03.878Z,7.40
2018-12-05T16:14:32.623Z,7.40
2018-12-05T16:17:01.336Z,7.40
2018-12-05T16:19:30.024Z,7.40
2018-12-05T16:21:58.791Z,7.30
2018-12-05T16:24:27.475Z,7.30
2018-12-05T16:26:56.131Z,7.30
2018-12-05T16:29:24.848Z,7.30
2018-12-05T16:31:53.612Z,7.30
2018-12-05T16:34:22.380Z,7.30
2018-12-05T16:36:51.085Z,7.30
2018-12-05T16:39:19.812Z,7.30
2018-12-05T16:41:48.535Z,7.40
2018-12-05T16:44:17.285Z,7.40
2018-12-05T16:46:46.575Z,7.40
2018-12-05T16:49:15.191Z,7.40
2018-12-05T16:51:43.930Z,7.40
2018-12-05T16:54:13.521Z,7.40
2018-12-05T16:56:42.195Z,7.40
2018-12-05T16:59:10.961Z,7.40
2018-12-05T17:01:40.548Z,7.40
2018-12-05T17:04:09.201Z,7.40
2018-12-05T17:06:37.920Z,7.40
2018-12-05T17:09:08.058Z,7.40
2018-12-05T17:11:36.770Z,7.40
2018-12-05T17:14:05.509Z,7.40
2018-12-05T17:16:34.276Z,7.30
2018-12-05T17:19:02.970Z,7.30
2018-12-05T17:21:31.721Z,7.40
2018-12-05T17:24:00.383Z,7.40
2018-12-05T17:26:29.070Z,7.40
2018-12-05T17:28:57.720Z,7.40
2018-12-05T17:31:26.773Z,7.30
2018-12-05T17:33:55.504Z,7.40
2018-12-05T17:36:24.213Z,7.40
2018-12-05T17:38:52.921Z,7.30
2018-12-05T17:41:21.600Z,7.30
2018-12-05T17:43:50.424Z,7.40
2018-12-05T17:46:19.101Z,7.30
2018-12-05T17:48:48.390Z,7.40
2018-12-05T17:51:17.062Z,7.40
2018-12-05T17:53:45.789Z,7.40
2018-12-05T17:56:14.433Z,7.40
2018-12-05T17:58:43.092Z,7.40
2018-12-05T18:01:11.777Z,7.40
2018-12-05T18:03:40.465Z,7.30
2018-12-05T18:06:09.199Z,7.30
2018-12-05T18:08:37.934Z,7.40
2018-12-05T18:11:06.725Z,7.30
2018-12-05T18:13:35.393Z,7.30
2018-12-05T18:16:04.128Z,7.30
2018-12-05T18:18:32.905Z,7.30
2018-12-05T18:21:01.520Z,7.40
2018-12-05T18:23:30.293Z,7.40
2018-12-05T18:25:59.037Z,7.40
2018-12-05T18:28:30.116Z,7.40
2018-12-05T18:30:58.771Z,7.40
2018-12-05T18:33:27.484Z,7.40
2018-12-05T18:35:57.191Z,7.40
2018-12-05T18:38:25.886Z,7.40
2018-12-05T18:40:54.561Z,7.40
2018-12-05T18:43:23.268Z,7.40
2018-12-05T18:45:51.945Z,7.40
2018-12-05T18:48:20.674Z,7.40
2018-12-05T18:50:49.416Z,7.40
2018-12-05T18:53:18.426Z,7.40
2018-12-05T18:55:47.117Z,7.40
2018-12-05T18:58:15.811Z,7.40
2018-12-05T19:00:44.521Z,7.40
2018-12-05T19:03:13.211Z,7.40
2018-12-05T19:05:41.920Z,7.40
2018-12-05T19:08:10.612Z,7.40
2018-12-05T19:10:39.353Z,7.40
2018-12-05T19:13:08.070Z,7.40
2018-12-05T19:15:36.792Z,7.40
2018-12-05T19:18:05.531Z,7.40
2018-12-05T19:20:34.198Z,7.40
2018-12-05T19:23:02.953Z,7.40
2018-12-05T19:25:31.730Z,7.40
2018-12-05T19:28:00.504Z,7.40
2018-12-05T19:30:29.196Z,7.40
2018-12-05T19:32:57.888Z,7.40
2018-12-05T19:35:26.583Z,7.50
2018-12-05T19:37:55.773Z,7.50
2018-12-05T19:40:24.431Z,7.50
2018-12-05T19:42:53.199Z,7.50
2018-12-05T19:45:21.933Z,7.50
2018-12-05T19:47:50.580Z,7.50
2018-12-05T19:50:19.300Z,7.50
2018-12-05T19:52:47.958Z,7.50
2018-12-05T19:55:16.699Z,7.50
2018-12-05T19:57:45.433Z,7.50
2018-12-05T20:00:14.231Z,7.50
2018-12-05T20:02:43.022Z,7.50
2018-12-05T20:05:11.763Z,7.50
2018-12-05T20:07:40.387Z,7.50
2018-12-05T20:10:09.227Z,7.50
2018-12-05T20:12:50.208Z,7.50
2018-12-05T20:15:22.600Z,7.50
2018-12-05T20:18:02.840Z,7.50
2018-12-05T20:20:35.185Z,7.50
2018-12-05T20:23:06.019Z,7.50
2018-12-05T20:25:39.597Z,7.50
2018-12-05T20:28:23.484Z,7.50
2018-12-05T20:30:57.717Z,7.50
2018-12-05T20:33:26.847Z,7.40
2018-12-05T20:36:01.851Z,7.50
2018-12-05T20:38:34.362Z,7.50
2018-12-05T20:41:10.800Z,7.50
2018-12-05T20:43:54.156Z,7.40
2018-12-05T20:46:31.378Z,7.50
2018-12-05T20:49:00.229Z,7.50
2018-12-05T20:51:29.137Z,7.40
2018-12-05T20:54:00.516Z,7.40
2018-12-05T20:56:29.849Z,7.50
2018-12-05T20:58:58.537Z,7.50
2018-12-05T21:01:27.682Z,7.50
2018-12-05T21:03:56.394Z,7.50
2018-12-05T21:06:25.108Z,7.50
2018-12-05T21:08:53.949Z,7.50
2018-12-05T21:11:22.675Z,7.50
2018-12-05T21:13:51.435Z,7.50
2018-12-05T21:16:20.120Z,7.50
2018-12-05T21:18:48.789Z,7.50
2018-12-05T21:21:17.508Z,7.60
2018-12-05T21:23:46.177Z,7.60
2018-12-05T21:26:14.873Z,7.60
2018-12-05T21:28:43.580Z,7.60
2018-12-05T21:31:12.283Z,7.60
2018-12-05T21:33:41.082Z,7.50
2018-12-05T21:36:09.727Z,7.50
2018-12-05T21:38:38.377Z,7.50
2018-12-05T21:41:07.033Z,7.60
2018-12-05T21:43:35.725Z,7.60
2018-12-05T21:46:04.462Z,7.60
2018-12-05T21:48:33.175Z,7.50
2018-12-05T21:51:01.872Z,7.60
2018-12-05T21:53:30.567Z,7.60
2018-12-05T21:55:59.268Z,7.60
2018-12-05T21:58:27.931Z,7.60
2018-12-05T22:00:56.574Z,7.60
2018-12-05T22:03:25.226Z,7.60
2018-12-05T22:05:54.047Z,7.60
2018-12-05T22:08:23.144Z,7.60
2018-12-05T22:10:55.054Z,7.60
2018-12-05T22:13:23.835Z,7.60
2018-12-05T22:15:52.701Z,7.60
2018-12-05T22:18:21.427Z,7.60
2018-12-05T22:20:50.086Z,7.60
2018-12-05T22:23:18.719Z,7.60
2018-12-05T22:25:47.412Z,7.60
2018-12-05T22:28:17.087Z,7.60
2018-12-05T22:30:45.859Z,7.60
2018-12-05T22:33:14.713Z,7.60
2018-12-05T22:35:43.359Z,7.60
2018-12-05T22:38:12.056Z,7.60
2018-12-05T22:40:40.730Z,7.60
2018-12-05T22:43:09.438Z,7.70
2018-12-05T22:45:38.233Z,7.70
2018-12-05T22:48:06.885Z,7.70
2018-12-05T22:50:36.437Z,7.70
2018-12-05T22:53:05.113Z,7.70
2018-12-05T22:55:33.925Z,7.70
2018-12-05T22:58:02.545Z,7.70
2018-12-05T23:00:31.574Z,7.70
2018-12-05T23:03:00.373Z,7.70
2018-12-05T23:05:29.042Z,7.80
2018-12-05T23:07:57.704Z,7.80
2018-12-05T23:10:26.384Z,7.70
2018-12-05T23:12:55.040Z,7.70
2018-12-05T23:15:23.810Z,7.80
2018-12-05T23:17:52.539Z,7.80
2018-12-05T23:20:21.281Z,7.80
2018-12-05T23:22:49.985Z,7.80
2018-12-05T23:25:18.688Z,7.80
2018-12-05T23:27:47.299Z,7.80
2018-12-05T23:30:16.351Z,7.80
2018-12-05T23:32:45.018Z,7.80
2018-12-05T23:35:13.678Z,7.80
2018-12-05T23:37:42.276Z,7.80
2018-12-05T23:40:10.951Z,7.80
2018-12-05T23:42:39.628Z,7.90
2018-12-05T23:45:08.556Z,7.80
2018-12-05T23:47:37.528Z,7.80
2018-12-05T23:50:06.913Z,7.80
2018-12-05T23:52:35.555Z,7.90
2018-12-05T23:55:04.267Z,7.90
2018-12-05T23:57:32.912Z,7.90
